createdAt,value
2018-01-25T00:01:07.422Z,0.00
2018-01-25T00:02:39.342Z,0.00
2018-01-25T00:04:11.064Z,0.00
2018-01-25T00:05:42.882Z,0.00
2018-01-25T00:07:14.715Z,0.00
2018-01-25T00:08:46.522Z,0.00
2018-01-25T00:10:18.368Z,0.00
2018-01-25T00:11:50.166Z,0.00
2018-01-25T00:13:21.993Z,0.00
2018-01-25T00:14:53.803Z,0.00
2018-01-25T00:16:25.622Z,0.00
2018-01-25T00:17:57.443Z,0.00
2018-01-25T00:19:29.263Z,0.00
2018-01-25T00:21:01.187Z,0.00
2018-01-25T00:22:32.904Z,0.00
2018-01-25T00:24:04.727Z,0.00
2018-01-25T00:25:36.542Z,0.00
2018-01-25T00:27:08.376Z,0.00
2018-01-25T00:28:40.182Z,0.00
2018-01-25T00:30:12.007Z,0.00
2018-01-25T00:31:43.825Z,0.00
2018-01-25T00:33:15.643Z,0.00
2018-01-25T00:34:47.463Z,0.00
2018-01-25T00:36:19.289Z,0.00
2018-01-25T00:37:51.103Z,0.00
2018-01-25T00:39:23.024Z,0.00
2018-01-25T00:40:54.742Z,0.00
2018-01-25T00:42:26.576Z,0.00
2018-01-25T00:43:58.387Z,0.00
2018-01-25T00:45:30.212Z,0.00
2018-01-25T00:47:02.023Z,0.00
2018-01-25T00:48:33.842Z,0.00
2018-01-25T00:50:05.665Z,0.00
2018-01-25T00:51:37.483Z,0.00
2018-01-25T00:53:09.306Z,0.00
2018-01-25T00:54:41.123Z,0.00
2018-01-25T00:56:12.944Z,0.00
2018-01-25T00:57:44.871Z,0.00
2018-01-25T00:59:16.582Z,0.00
2018-01-25T01:00:48.420Z,0.00
2018-01-25T01:02:20.273Z,0.00
2018-01-25T01:03:52.050Z,0.00
2018-01-25T01:05:23.865Z,0.00
2018-01-25T01:06:55.682Z,0.00
2018-01-25T01:08:27.549Z,0.00
2018-01-25T01:09:59.322Z,0.00
2018-01-25T01:11:31.142Z,0.00
2018-01-25T01:13:02.964Z,0.00
2018-01-25T01:14:34.782Z,0.00
2018-01-25T01:16:06.763Z,0.00
2018-01-25T01:17:38.441Z,0.00
2018-01-25T01:19:10.280Z,0.00
2018-01-25T01:20:42.064Z,0.00
2018-01-25T01:22:14.035Z,0.00
2018-01-25T01:23:45.708Z,0.00
2018-01-25T01:25:17.540Z,0.00
2018-01-25T01:26:49.345Z,0.00
2018-01-25T01:28:21.174Z,0.00
2018-01-25T01:29:52.995Z,0.00
2018-01-25T01:31:24.806Z,0.00
2018-01-25T01:32:56.629Z,0.00
2018-01-25T01:34:28.547Z,0.00
2018-01-25T01:36:01.009Z,0.00
2018-01-25T01:37:33.182Z,0.00
2018-01-25T01:39:04.926Z,0.00
2018-01-25T01:40:35.728Z,0.00
2018-01-25T01:42:07.548Z,0.00
2018-01-25T01:43:39.387Z,0.00
2018-01-25T01:45:11.189Z,0.00
2018-01-25T01:46:43.159Z,0.00
2018-01-25T01:48:14.829Z,0.00
2018-01-25T01:49:46.649Z,0.00
2018-01-25T01:51:18.477Z,0.00
2018-01-25T01:52:50.393Z,0.00
2018-01-25T01:54:22.141Z,0.00
2018-01-25T01:55:53.929Z,0.00
2018-01-25T01:57:25.767Z,0.00
2018-01-25T01:58:57.571Z,0.00
2018-01-25T02:00:29.393Z,0.00
2018-01-25T02:02:01.209Z,0.00
2018-01-25T02:03:33.030Z,0.00
2018-01-25T02:05:04.853Z,0.00
2018-01-25T02:06:36.671Z,0.00
2018-01-25T02:08:08.489Z,0.00
2018-01-25T02:09:40.329Z,0.00
2018-01-25T02:11:12.282Z,0.00
2018-01-25T02:12:43.948Z,0.00
2018-01-25T02:14:15.767Z,0.00
2018-01-25T02:15:47.589Z,0.00
2018-01-25T02:17:19.407Z,0.00
2018-01-25T02:18:51.227Z,0.00
2018-01-25T02:20:23.048Z,0.00
2018-01-25T02:21:54.867Z,0.00
2018-01-25T02:23:26.687Z,0.00
2018-01-25T02:24:58.512Z,0.00
2018-01-25T02:26:30.344Z,0.00
2018-01-25T02:28:02.146Z,0.00
2018-01-25T02:29:34.068Z,0.00
2018-01-25T02:31:05.851Z,0.00
2018-01-25T02:32:37.609Z,0.00
2018-01-25T02:34:09.430Z,0.00
2018-01-25T02:35:41.244Z,0.00
2018-01-25T02:37:13.064Z,0.00
2018-01-25T02:38:44.887Z,0.00
2018-01-25T02:40:16.704Z,0.00
2018-01-25T02:41:48.778Z,0.00
2018-01-25T02:43:20.342Z,0.00
2018-01-25T02:45:03.234Z,0.00
2018-01-25T02:46:35.045Z,0.00
2018-01-25T02:48:06.965Z,0.00
2018-01-25T02:49:38.687Z,0.00
2018-01-25T02:51:10.508Z,0.00
2018-01-25T02:52:42.323Z,0.00
2018-01-25T02:54:14.142Z,0.00
2018-01-25T02:55:45.999Z,0.00
2018-01-25T02:57:17.781Z,0.00
2018-01-25T02:58:49.604Z,0.00
2018-01-25T03:00:21.419Z,0.00
2018-01-25T03:01:53.238Z,0.00
2018-01-25T03:03:25.057Z,0.00
2018-01-25T03:04:56.876Z,0.00
2018-01-25T03:06:28.795Z,0.00
2018-01-25T03:08:00.515Z,0.00
2018-01-25T03:09:32.333Z,0.00
2018-01-25T03:11:04.155Z,0.00
2018-01-25T03:12:36.223Z,0.00
2018-01-25T03:14:07.828Z,0.00
2018-01-25T03:15:39.611Z,0.00
2018-01-25T03:17:11.429Z,0.00
2018-01-25T03:18:43.248Z,0.00
2018-01-25T03:20:15.067Z,0.00
2018-01-25T03:21:46.885Z,0.00
2018-01-25T03:23:18.705Z,0.00
2018-01-25T03:24:50.623Z,0.00
2018-01-25T03:26:22.341Z,0.00
2018-01-25T03:27:54.159Z,0.00
2018-01-25T03:29:25.980Z,0.00
2018-01-25T03:30:57.816Z,0.00
2018-01-25T03:32:29.618Z,0.00
2018-01-25T03:34:01.434Z,0.00
2018-01-25T03:35:33.253Z,0.00
2018-01-25T03:37:05.071Z,0.00
2018-01-25T03:38:36.890Z,0.00
2018-01-25T03:40:08.708Z,0.00
2018-01-25T03:41:40.527Z,0.00
2018-01-25T03:43:12.446Z,0.00
2018-01-25T03:44:44.190Z,0.00
2018-01-25T03:46:15.983Z,0.00
2018-01-25T03:47:47.802Z,0.00
2018-01-25T03:49:19.771Z,0.00
2018-01-25T03:50:51.441Z,0.00
2018-01-25T03:52:23.258Z,0.00
2018-01-25T03:53:55.077Z,0.00
2018-01-25T03:55:26.895Z,0.00
2018-01-25T03:56:58.713Z,0.00
2018-01-25T03:58:30.532Z,0.00
2018-01-25T04:00:02.350Z,0.00
2018-01-25T04:01:34.269Z,0.00
2018-01-25T04:03:05.987Z,0.00
2018-01-25T04:04:37.806Z,0.00
2018-01-25T04:06:09.629Z,0.00
2018-01-25T04:07:41.447Z,0.00
2018-01-25T04:09:13.261Z,0.00
2018-01-25T04:10:45.080Z,0.00
2018-01-25T04:12:16.898Z,0.00
2018-01-25T04:13:48.968Z,0.00
2018-01-25T04:15:20.534Z,0.00
2018-01-25T04:16:52.353Z,0.00
2018-01-25T04:18:24.172Z,0.00
2018-01-25T04:19:56.240Z,0.00
2018-01-25T04:21:27.807Z,0.00
2018-01-25T04:22:59.626Z,0.00
2018-01-25T04:24:31.443Z,0.00
2018-01-25T04:26:03.262Z,0.00
2018-01-25T04:27:35.080Z,0.00
2018-01-25T04:29:06.899Z,0.00
2018-01-25T04:30:38.717Z,0.00
2018-01-25T04:32:10.536Z,0.00
2018-01-25T04:33:42.353Z,0.00
2018-01-25T04:35:14.172Z,0.00
2018-01-25T04:36:45.990Z,0.00
2018-01-25T04:38:17.908Z,0.00
2018-01-25T04:39:49.627Z,0.00
2018-01-25T04:41:21.444Z,0.00
2018-01-25T04:42:53.263Z,0.00
2018-01-25T04:44:25.332Z,0.00
2018-01-25T04:45:56.899Z,0.00
2018-01-25T04:47:28.717Z,0.00
2018-01-25T04:49:00.535Z,0.00
2018-01-25T04:50:32.353Z,0.00
2018-01-25T04:52:04.171Z,0.00
2018-01-25T04:53:35.989Z,0.00
2018-01-25T04:55:07.808Z,0.00
2018-01-25T04:56:39.725Z,0.00
2018-01-25T04:58:11.485Z,0.00
2018-01-25T04:59:43.260Z,0.00
2018-01-25T05:01:15.079Z,0.00
2018-01-25T05:02:46.897Z,0.00
2018-01-25T05:04:18.714Z,0.00
2018-01-25T05:05:50.533Z,0.00
2018-01-25T05:07:22.358Z,0.00
2018-01-25T05:08:54.168Z,0.00
2018-01-25T05:10:25.987Z,0.00
2018-01-25T05:11:57.809Z,0.00
2018-01-25T05:13:29.622Z,0.00
2018-01-25T05:15:01.794Z,0.00
2018-01-25T05:16:33.258Z,0.00
2018-01-25T05:18:05.077Z,0.00
2018-01-25T05:19:36.894Z,0.00
2018-01-25T05:21:08.862Z,0.00
2018-01-25T05:22:40.530Z,0.00
2018-01-25T05:24:12.375Z,0.00
2018-01-25T05:25:44.166Z,0.00
2018-01-25T05:27:16.020Z,0.00
2018-01-25T05:28:47.800Z,0.00
2018-01-25T05:30:19.618Z,0.00
2018-01-25T05:31:51.439Z,0.00
2018-01-25T05:33:23.354Z,0.00
2018-01-25T05:34:55.073Z,0.00
2018-01-25T05:36:26.890Z,0.00
2018-01-25T05:37:58.707Z,0.00
2018-01-25T05:39:30.526Z,0.00
2018-01-25T05:41:02.343Z,0.00
2018-01-25T05:42:34.160Z,0.00
2018-01-25T05:44:05.979Z,0.00
2018-01-25T05:45:37.947Z,0.00
2018-01-25T05:47:09.614Z,0.00
2018-01-25T05:48:41.433Z,0.00
2018-01-25T05:50:13.250Z,0.00
2018-01-25T05:51:45.168Z,0.00
2018-01-25T05:53:16.889Z,0.00
2018-01-25T05:54:48.704Z,0.00
2018-01-25T05:56:20.521Z,0.00
2018-01-25T05:57:52.338Z,0.00
2018-01-25T05:59:24.156Z,0.00
2018-01-25T06:00:55.974Z,0.00
2018-01-25T06:02:27.792Z,0.00
2018-01-25T06:03:59.610Z,0.00
2018-01-25T06:05:31.428Z,0.00
2018-01-25T06:07:03.246Z,0.00
2018-01-25T06:08:35.064Z,0.00
2018-01-25T06:10:06.982Z,0.00
2018-01-25T06:11:38.699Z,0.00
2018-01-25T06:13:10.517Z,0.00
2018-01-25T06:14:42.334Z,0.00
2018-01-25T06:16:14.303Z,0.00
2018-01-25T06:17:45.970Z,0.00
2018-01-25T06:19:17.787Z,0.00
2018-01-25T06:20:49.606Z,0.00
2018-01-25T06:22:21.472Z,0.00
2018-01-25T06:23:53.242Z,0.00
2018-01-25T06:25:25.060Z,0.00
2018-01-25T06:26:56.877Z,0.00
2018-01-25T06:28:28.946Z,0.00
2018-01-25T06:30:00.513Z,0.00
2018-01-25T06:31:32.332Z,0.00
2018-01-25T06:33:04.155Z,0.00
2018-01-25T06:34:35.968Z,0.00
2018-01-25T06:36:07.787Z,0.00
2018-01-25T06:37:39.607Z,0.00
2018-01-25T06:39:11.424Z,0.00
2018-01-25T06:40:43.243Z,0.00
2018-01-25T06:42:15.066Z,0.00
2018-01-25T06:43:46.880Z,0.00
2018-01-25T06:45:18.698Z,0.00
2018-01-25T06:46:50.867Z,0.00
2018-01-25T06:48:22.336Z,0.00
2018-01-25T06:49:54.154Z,0.00
2018-01-25T06:51:25.977Z,0.00
2018-01-25T06:52:57.792Z,0.00
2018-01-25T06:54:29.611Z,0.00
2018-01-25T06:56:01.430Z,0.00
2018-01-25T06:57:33.248Z,0.00
2018-01-25T06:59:05.069Z,0.00
2018-01-25T07:00:36.887Z,0.00
2018-01-25T07:02:08.706Z,0.00
2018-01-25T07:03:40.525Z,0.00
2018-01-25T07:05:12.444Z,0.00
2018-01-25T07:06:44.163Z,0.00
2018-01-25T07:08:15.982Z,0.00
2018-01-25T07:09:47.801Z,0.00
2018-01-25T07:11:19.620Z,0.00
2018-01-25T07:12:51.439Z,0.00
2018-01-25T07:14:23.258Z,0.00
2018-01-25T07:15:55.077Z,0.00
2018-01-25T07:17:26.997Z,0.00
2018-01-25T07:18:58.715Z,0.00
2018-01-25T07:20:30.535Z,0.00
2018-01-25T07:22:02.353Z,0.00
2018-01-25T07:23:34.272Z,0.00
2018-01-25T07:25:05.990Z,0.00
2018-01-25T07:26:37.808Z,0.00
2018-01-25T07:28:09.630Z,0.00
2018-01-25T07:29:41.595Z,0.00
2018-01-25T07:31:13.263Z,0.00
2018-01-25T07:32:45.081Z,0.00
2018-01-25T07:34:16.899Z,0.00
2018-01-25T07:35:48.718Z,0.00
2018-01-25T07:37:20.536Z,0.00
2018-01-25T07:38:52.354Z,0.00
2018-01-25T07:40:24.172Z,0.00
2018-01-25T07:41:56.092Z,0.00
2018-01-25T07:43:27.809Z,0.00
2018-01-25T07:44:59.627Z,0.00
2018-01-25T07:46:31.450Z,0.00
2018-01-25T07:48:03.364Z,0.00
2018-01-25T07:49:36.432Z,0.00
2018-01-25T07:51:06.972Z,0.00
2018-01-25T07:52:38.813Z,0.00
2018-01-25T07:54:10.617Z,0.00
2018-01-25T07:55:42.465Z,0.00
2018-01-25T07:57:14.340Z,0.00
2018-01-25T07:58:45.991Z,0.00
2018-01-25T08:00:18.072Z,0.00
2018-01-25T08:01:49.628Z,0.00
2018-01-25T08:03:21.451Z,0.00
2018-01-25T08:04:53.268Z,0.00
2018-01-25T08:06:25.082Z,0.00
2018-01-25T08:07:56.900Z,0.00
2018-01-25T08:09:28.718Z,0.00
2018-01-25T08:11:00.536Z,0.00
2018-01-25T08:12:32.354Z,0.00
2018-01-25T08:14:04.172Z,0.00
2018-01-25T08:15:35.990Z,4.00
2018-01-25T08:17:07.808Z,0.00
2018-01-25T08:18:39.978Z,4.00
2018-01-25T08:20:11.443Z,4.00
2018-01-25T08:21:43.261Z,8.00
2018-01-25T08:23:15.079Z,12.00
2018-01-25T08:24:46.896Z,16.00
2018-01-25T08:26:18.714Z,24.00
2018-01-25T08:27:50.532Z,32.00
2018-01-25T08:29:22.350Z,44.00
2018-01-25T08:30:54.168Z,64.00
2018-01-25T08:32:25.985Z,92.00
2018-01-25T08:33:57.803Z,128.00
2018-01-25T08:35:29.621Z,164.00
2018-01-25T08:37:01.540Z,216.00
2018-01-25T08:38:33.257Z,280.00
2018-01-25T08:40:05.074Z,324.00
2018-01-25T08:41:36.892Z,368.00
2018-01-25T08:43:08.710Z,412.00
2018-01-25T08:44:40.528Z,504.00
2018-01-25T08:46:12.345Z,648.00
2018-01-25T08:47:44.163Z,804.00
2018-01-25T08:49:16.231Z,976.00
2018-01-25T08:50:47.799Z,1084.00
2018-01-25T08:52:19.617Z,1228.00
2018-01-25T08:53:51.434Z,1400.00
2018-01-25T08:55:23.352Z,1412.00
2018-01-25T08:56:55.071Z,1500.00
2018-01-25T08:58:26.890Z,1608.00
2018-01-25T08:59:58.706Z,1788.00
2018-01-25T09:01:30.525Z,1764.00
2018-01-25T09:03:02.355Z,1600.00
2018-01-25T09:04:34.163Z,1764.00
2018-01-25T09:06:05.979Z,1960.00
2018-01-25T09:07:37.797Z,2500.00
2018-01-25T09:09:09.615Z,2940.00
2018-01-25T09:10:41.433Z,3080.00
2018-01-25T09:12:13.252Z,3392.00
2018-01-25T09:13:45.171Z,4212.00
2018-01-25T09:15:16.892Z,6444.00
2018-01-25T09:16:48.708Z,7048.00
2018-01-25T09:18:20.526Z,8664.00
2018-01-25T09:19:52.346Z,9908.00
2018-01-25T09:21:24.164Z,11268.00
2018-01-25T09:22:55.984Z,9860.00
2018-01-25T09:24:27.804Z,9568.00
2018-01-25T09:25:59.775Z,9136.00
2018-01-25T09:27:31.444Z,7512.00
2018-01-25T09:29:03.267Z,9768.00
2018-01-25T09:30:35.086Z,10192.00
2018-01-25T09:32:07.507Z,10876.00
2018-01-25T09:33:38.727Z,8964.00
2018-01-25T09:35:10.548Z,10512.00
2018-01-25T09:36:42.369Z,10208.00
2018-01-25T09:38:14.190Z,10776.00
2018-01-25T09:39:46.012Z,10580.00
2018-01-25T09:41:17.839Z,11440.00
2018-01-25T09:42:49.813Z,12028.00
2018-01-25T09:44:21.476Z,12000.00
2018-01-25T09:45:53.298Z,9048.00
2018-01-25T09:47:25.120Z,10232.00
2018-01-25T09:48:56.942Z,12756.00
2018-01-25T09:50:28.864Z,13604.00
2018-01-25T09:52:00.585Z,14476.00
2018-01-25T09:53:32.407Z,15376.00
2018-01-25T09:55:04.230Z,13100.00
2018-01-25T09:56:36.051Z,12664.00
2018-01-25T09:58:07.873Z,13424.00
2018-01-25T09:59:39.751Z,14084.00
2018-01-25T10:01:11.517Z,12780.00
2018-01-25T10:02:43.339Z,13816.00
2018-01-25T10:04:15.161Z,14196.00
2018-01-25T10:05:46.984Z,16140.00
2018-01-25T10:07:18.820Z,17308.00
2018-01-25T10:08:50.728Z,17424.00
2018-01-25T10:10:22.450Z,18176.00
2018-01-25T10:11:54.274Z,17612.00
2018-01-25T10:13:26.095Z,18880.00
2018-01-25T10:14:57.917Z,19488.00
2018-01-25T10:16:29.739Z,24352.00
2018-01-25T10:18:01.562Z,29152.00
2018-01-25T10:19:33.384Z,30368.00
2018-01-25T10:21:05.211Z,26240.00
2018-01-25T10:22:37.030Z,19360.00
2018-01-25T10:24:08.855Z,17548.00
2018-01-25T10:25:40.676Z,23488.00
2018-01-25T10:27:12.599Z,24992.00
2018-01-25T10:28:44.322Z,21856.00
2018-01-25T10:30:16.144Z,20320.00
2018-01-25T10:31:47.968Z,16316.00
2018-01-25T10:33:19.793Z,18656.00
2018-01-25T10:34:51.613Z,19680.00
2018-01-25T10:36:23.436Z,20480.00
2018-01-25T10:37:55.259Z,17992.00
2018-01-25T10:39:27.081Z,17596.00
2018-01-25T10:40:58.904Z,19648.00
2018-01-25T10:42:30.727Z,23872.00
2018-01-25T10:44:02.550Z,21632.00
2018-01-25T10:45:34.473Z,24096.00
2018-01-25T10:47:06.196Z,24256.00
2018-01-25T10:48:38.019Z,24608.00
2018-01-25T10:50:09.843Z,25632.00
2018-01-25T10:51:41.916Z,28672.00
2018-01-25T10:53:13.490Z,29280.00
2018-01-25T10:54:45.314Z,29120.00
2018-01-25T10:56:17.139Z,29952.00
2018-01-25T10:57:48.962Z,29184.00
2018-01-25T10:59:20.786Z,29952.00
2018-01-25T11:00:52.613Z,25632.00
2018-01-25T11:02:24.435Z,25248.00
2018-01-25T11:03:56.412Z,33600.00
2018-01-25T11:05:28.084Z,46176.00
2018-01-25T11:06:59.908Z,48736.00
2018-01-25T11:08:31.733Z,53088.00
2018-01-25T11:10:03.558Z,29376.00
2018-01-25T11:11:35.395Z,22816.00
2018-01-25T11:13:07.208Z,22720.00
2018-01-25T11:14:39.033Z,24448.00
2018-01-25T11:16:10.859Z,25568.00
2018-01-25T11:17:42.683Z,27840.00
2018-01-25T11:19:14.508Z,29248.00
2018-01-25T11:20:46.332Z,25664.00
2018-01-25T11:22:18.508Z,26560.00
2018-01-25T11:23:49.981Z,28640.00
2018-01-25T11:25:21.805Z,26496.00
2018-01-25T11:26:53.629Z,51328.00
2018-01-25T11:28:25.453Z,28800.00
2018-01-25T11:29:57.277Z,54176.00
2018-01-25T11:31:29.104Z,54784.00
2018-01-25T11:33:00.926Z,68224.00
2018-01-25T11:34:32.750Z,42656.00
2018-01-25T11:36:04.576Z,34240.00
2018-01-25T11:37:36.400Z,51296.00
2018-01-25T11:39:08.227Z,64224.00
2018-01-25T11:40:40.151Z,48704.00
2018-01-25T11:42:11.876Z,30400.00
2018-01-25T11:43:43.701Z,27232.00
2018-01-25T11:45:15.526Z,35904.00
2018-01-25T11:46:47.352Z,55552.00
2018-01-25T11:48:19.178Z,69856.00
2018-01-25T11:49:51.003Z,78400.00
2018-01-25T11:51:22.828Z,36384.00
2018-01-25T11:52:54.904Z,34688.00
2018-01-25T11:54:26.480Z,33184.00
2018-01-25T11:55:58.306Z,30976.00
2018-01-25T11:57:30.131Z,38080.00
2018-01-25T11:59:02.058Z,80800.00
2018-01-25T12:00:33.786Z,84640.00
2018-01-25T12:02:05.610Z,84064.00
2018-01-25T12:03:37.438Z,81728.00
2018-01-25T12:05:09.262Z,86112.00
2018-01-25T12:06:41.087Z,62176.00
2018-01-25T12:08:12.916Z,50144.00
2018-01-25T12:09:44.741Z,78528.00
2018-01-25T12:11:16.568Z,89632.00
2018-01-25T12:12:48.395Z,93760.00
2018-01-25T12:14:20.222Z,96000.00
2018-01-25T12:15:52.049Z,56288.00
2018-01-25T12:17:23.976Z,62176.00
2018-01-25T12:18:55.703Z,86240.00
2018-01-25T12:20:27.531Z,37792.00
2018-01-25T12:21:59.370Z,41536.00
2018-01-25T12:23:31.434Z,51392.00
2018-01-25T12:25:03.010Z,76128.00
2018-01-25T12:26:34.836Z,82496.00
2018-01-25T12:28:06.703Z,40192.00
2018-01-25T12:29:38.489Z,53568.00
2018-01-25T12:31:10.316Z,39552.00
2018-01-25T12:32:42.144Z,44160.00
2018-01-25T12:34:13.969Z,38240.00
2018-01-25T12:35:45.896Z,32320.00
2018-01-25T12:37:17.622Z,32640.00
2018-01-25T12:38:49.448Z,98560.00
2018-01-25T12:40:21.277Z,42144.00
2018-01-25T12:41:53.101Z,42560.00
2018-01-25T12:43:24.927Z,114880.00
2018-01-25T12:44:56.753Z,38656.00
2018-01-25T12:46:28.579Z,34240.00
2018-01-25T12:48:00.406Z,31648.00
2018-01-25T12:49:32.232Z,33824.00
2018-01-25T12:51:04.058Z,41696.00
2018-01-25T12:52:35.883Z,47840.00
2018-01-25T12:54:07.810Z,42752.00
2018-01-25T12:55:39.537Z,38624.00
2018-01-25T12:57:11.362Z,37920.00
2018-01-25T12:58:43.187Z,38912.00
2018-01-25T13:00:15.013Z,41824.00
2018-01-25T13:01:46.837Z,118240.00
2018-01-25T13:03:18.664Z,93824.00
2018-01-25T13:04:50.490Z,39360.00
2018-01-25T13:06:22.315Z,39968.00
2018-01-25T13:07:54.144Z,41440.00
2018-01-25T13:09:25.968Z,42656.00
2018-01-25T13:10:57.794Z,43328.00
2018-01-25T13:12:29.721Z,55104.00
2018-01-25T13:14:01.447Z,74368.00
2018-01-25T13:15:33.273Z,42624.00
2018-01-25T13:17:05.099Z,38880.00
2018-01-25T13:18:36.925Z,39552.00
2018-01-25T13:20:08.752Z,41920.00
2018-01-25T13:21:40.577Z,50592.00
2018-01-25T13:23:12.402Z,58912.00
2018-01-25T13:24:44.479Z,56064.00
2018-01-25T13:26:16.054Z,70432.00
2018-01-25T13:27:47.881Z,113984.00
2018-01-25T13:29:19.708Z,70112.00
2018-01-25T13:30:51.785Z,57184.00
2018-01-25T13:32:23.362Z,53600.00
2018-01-25T13:33:55.194Z,72160.00
2018-01-25T13:35:27.016Z,63360.00
2018-01-25T13:36:58.843Z,50400.00
2018-01-25T13:38:30.671Z,41120.00
2018-01-25T13:40:02.499Z,41664.00
2018-01-25T13:41:34.326Z,43232.00
2018-01-25T13:43:06.153Z,36928.00
2018-01-25T13:44:37.980Z,35296.00
2018-01-25T13:46:09.849Z,30976.00
2018-01-25T13:47:41.632Z,29568.00
2018-01-25T13:49:13.559Z,32224.00
2018-01-25T13:50:45.284Z,34944.00
2018-01-25T13:52:17.110Z,41248.00
2018-01-25T13:53:48.937Z,45664.00
2018-01-25T13:55:20.761Z,42752.00
2018-01-25T13:56:52.587Z,44224.00
2018-01-25T13:58:24.413Z,49376.00
2018-01-25T13:59:56.238Z,54720.00
2018-01-25T14:01:28.164Z,49664.00
2018-01-25T14:02:59.890Z,53408.00
2018-01-25T14:04:31.715Z,56704.00
2018-01-25T14:06:03.541Z,57824.00
2018-01-25T14:07:35.466Z,84864.00
2018-01-25T14:09:07.192Z,61248.00
2018-01-25T14:10:39.017Z,54880.00
2018-01-25T14:12:10.844Z,50080.00
2018-01-25T14:13:42.738Z,51904.00
2018-01-25T14:15:14.566Z,55872.00
2018-01-25T14:16:46.390Z,66432.00
2018-01-25T14:18:18.216Z,73408.00
2018-01-25T14:19:50.043Z,62432.00
2018-01-25T14:21:21.800Z,47328.00
2018-01-25T14:22:53.627Z,43040.00
2018-01-25T14:24:25.453Z,42464.00
2018-01-25T14:25:57.381Z,50240.00
2018-01-25T14:27:29.106Z,74880.00
2018-01-25T14:29:00.933Z,83328.00
2018-01-25T14:30:32.760Z,89088.00
2018-01-25T14:32:04.587Z,58144.00
2018-01-25T14:33:36.414Z,92480.00
2018-01-25T14:35:08.241Z,64096.00
2018-01-25T14:36:40.138Z,72768.00
2018-01-25T14:38:11.966Z,55488.00
2018-01-25T14:39:43.795Z,75616.00
2018-01-25T14:41:15.555Z,62944.00
2018-01-25T14:42:47.382Z,49728.00
2018-01-25T14:44:19.310Z,104032.00
2018-01-25T14:45:51.038Z,118400.00
2018-01-25T14:47:22.926Z,95264.00
2018-01-25T14:48:54.694Z,59456.00
2018-01-25T14:50:26.523Z,54304.00
2018-01-25T14:51:58.351Z,58112.00
2018-01-25T14:53:30.180Z,56064.00
2018-01-25T14:55:02.010Z,49216.00
2018-01-25T14:56:33.838Z,49088.00
2018-01-25T14:58:05.665Z,50272.00
2018-01-25T14:59:37.494Z,55968.00
2018-01-25T15:01:09.321Z,45504.00
2018-01-25T15:02:42.000Z,58272.00
2018-01-25T15:04:12.976Z,115296.00
2018-01-25T15:05:44.803Z,114240.00
2018-01-25T15:07:16.630Z,116512.00
2018-01-25T15:08:48.458Z,120672.00
2018-01-25T15:10:20.286Z,116320.00
2018-01-25T15:11:52.114Z,123616.00
2018-01-25T15:13:23.945Z,120800.00
2018-01-25T15:14:55.773Z,118976.00
2018-01-25T15:16:27.601Z,119904.00
2018-01-25T15:17:59.432Z,119392.00
2018-01-25T15:19:31.262Z,124512.00
2018-01-25T15:21:03.193Z,127232.00
2018-01-25T15:22:34.924Z,121504.00
2018-01-25T15:24:06.756Z,121248.00
2018-01-25T15:25:38.587Z,125888.00
2018-01-25T15:27:10.669Z,124768.00
2018-01-25T15:28:42.251Z,127392.00
2018-01-25T15:30:14.097Z,120128.00
2018-01-25T15:31:45.917Z,45504.00
2018-01-25T15:33:17.750Z,45248.00
2018-01-25T15:34:49.582Z,46944.00
2018-01-25T15:36:21.414Z,45248.00
2018-01-25T15:37:53.245Z,129248.00
2018-01-25T15:39:25.176Z,139072.00
2018-01-25T15:40:56.906Z,116704.00
2018-01-25T15:42:28.737Z,129632.00
2018-01-25T15:44:00.569Z,140608.00
2018-01-25T15:45:32.400Z,115168.00
2018-01-25T15:47:04.232Z,73536.00
2018-01-25T15:48:36.064Z,61216.00
2018-01-25T15:50:07.896Z,50944.00
2018-01-25T15:51:39.876Z,49376.00
2018-01-25T15:53:11.556Z,46080.00
2018-01-25T15:54:43.386Z,44864.00
2018-01-25T15:56:15.216Z,51840.00
2018-01-25T15:57:47.145Z,77248.00
2018-01-25T15:59:18.874Z,79008.00
2018-01-25T16:00:50.703Z,84992.00
2018-01-25T16:02:22.531Z,113024.00
2018-01-25T16:03:54.510Z,87904.00
2018-01-25T16:05:26.189Z,54528.00
2018-01-25T16:06:58.019Z,62624.00
2018-01-25T16:08:29.847Z,82112.00
2018-01-25T16:10:01.676Z,69376.00
2018-01-25T16:11:33.506Z,81472.00
2018-01-25T16:13:05.335Z,87488.00
2018-01-25T16:14:37.164Z,102432.00
2018-01-25T16:16:09.094Z,79744.00
2018-01-25T16:17:40.823Z,78496.00
2018-01-25T16:19:12.653Z,83360.00
2018-01-25T16:20:44.482Z,117376.00
2018-01-25T16:22:16.319Z,68480.00
2018-01-25T16:23:48.141Z,55264.00
2018-01-25T16:25:19.971Z,56032.00
2018-01-25T16:26:51.801Z,66720.00
2018-01-25T16:28:23.628Z,73248.00
2018-01-25T16:29:55.456Z,76000.00
2018-01-25T16:31:27.286Z,64192.00
2018-01-25T16:32:59.114Z,62816.00
2018-01-25T16:34:31.043Z,64704.00
2018-01-25T16:36:02.771Z,82432.00
2018-01-25T16:37:34.600Z,113024.00
2018-01-25T16:39:06.429Z,128160.00
2018-01-25T16:40:38.257Z,81856.00
2018-01-25T16:42:10.087Z,66464.00
2018-01-25T16:43:41.916Z,64096.00
2018-01-25T16:45:13.747Z,50336.00
2018-01-25T16:46:45.575Z,45696.00
2018-01-25T16:48:17.404Z,40512.00
2018-01-25T16:49:49.232Z,39648.00
2018-01-25T16:51:21.102Z,39008.00
2018-01-25T16:52:52.989Z,35648.00
2018-01-25T16:54:24.716Z,30560.00
2018-01-25T16:55:56.543Z,26752.00
2018-01-25T16:57:28.371Z,24512.00
2018-01-25T16:59:00.197Z,23008.00
2018-01-25T17:00:32.025Z,22080.00
2018-01-25T17:02:03.851Z,20960.00
2018-01-25T17:03:35.677Z,20704.00
2018-01-25T17:05:07.502Z,21664.00
2018-01-25T17:06:39.328Z,21792.00
2018-01-25T17:08:11.154Z,22560.00
2018-01-25T17:09:42.979Z,24736.00
2018-01-25T17:11:14.905Z,27200.00
2018-01-25T17:12:46.630Z,30912.00
2018-01-25T17:14:18.456Z,32416.00
2018-01-25T17:15:50.280Z,33536.00
2018-01-25T17:17:22.105Z,33120.00
2018-01-25T17:18:53.930Z,34080.00
2018-01-25T17:20:25.755Z,33984.00
2018-01-25T17:21:57.580Z,36448.00
2018-01-25T17:23:29.406Z,31456.00
2018-01-25T17:25:01.233Z,34848.00
2018-01-25T17:26:33.055Z,44960.00
2018-01-25T17:28:04.884Z,47520.00
2018-01-25T17:29:36.806Z,59040.00
2018-01-25T17:31:08.531Z,130656.00
2018-01-25T17:32:40.356Z,135104.00
2018-01-25T17:34:12.182Z,135168.00
2018-01-25T17:35:44.010Z,130336.00
2018-01-25T17:37:15.835Z,137664.00
2018-01-25T17:38:47.662Z,132512.00
2018-01-25T17:40:19.490Z,82720.00
2018-01-25T17:41:51.318Z,99072.00
2018-01-25T17:43:23.146Z,31680.00
2018-01-25T17:44:54.975Z,33440.00
2018-01-25T17:46:26.802Z,34496.00
2018-01-25T17:47:58.730Z,40320.00
2018-01-25T17:49:30.457Z,144384.00
2018-01-25T17:51:02.287Z,138080.00
2018-01-25T17:52:34.110Z,132192.00
2018-01-25T17:54:05.938Z,46880.00
2018-01-25T17:55:37.766Z,151872.00
2018-01-25T17:57:09.593Z,49728.00
2018-01-25T17:58:41.421Z,56864.00
2018-01-25T18:00:13.249Z,135360.00
2018-01-25T18:01:45.077Z,145792.00
2018-01-25T18:03:16.906Z,50240.00
2018-01-25T18:04:48.734Z,54240.00
2018-01-25T18:06:20.663Z,51232.00
2018-01-25T18:07:52.390Z,40064.00
2018-01-25T18:09:24.219Z,41792.00
2018-01-25T18:10:56.048Z,39936.00
2018-01-25T18:12:27.874Z,31872.00
2018-01-25T18:13:59.701Z,32224.00
2018-01-25T18:15:31.527Z,31616.00
2018-01-25T18:17:03.354Z,30912.00
2018-01-25T18:18:35.180Z,33312.00
2018-01-25T18:20:07.006Z,35872.00
2018-01-25T18:21:38.832Z,38528.00
2018-01-25T18:23:10.658Z,80160.00
2018-01-25T18:24:42.583Z,59264.00
2018-01-25T18:26:14.308Z,40672.00
2018-01-25T18:27:46.134Z,22784.00
2018-01-25T18:29:17.960Z,21408.00
2018-01-25T18:30:49.786Z,21216.00
2018-01-25T18:32:21.610Z,23808.00
2018-01-25T18:33:53.438Z,23712.00
2018-01-25T18:35:25.264Z,18912.00
2018-01-25T18:36:57.086Z,21888.00
2018-01-25T18:38:28.913Z,29536.00
2018-01-25T18:40:00.734Z,46112.00
2018-01-25T18:41:32.559Z,27680.00
2018-01-25T18:43:04.483Z,33184.00
2018-01-25T18:44:36.207Z,30592.00
2018-01-25T18:46:08.033Z,23488.00
2018-01-25T18:47:39.856Z,18816.00
2018-01-25T18:49:11.679Z,14140.00
2018-01-25T18:50:43.512Z,14220.00
2018-01-25T18:52:15.327Z,17664.00
2018-01-25T18:53:47.151Z,15396.00
2018-01-25T18:55:18.975Z,14564.00
2018-01-25T18:56:50.798Z,17504.00
2018-01-25T18:58:22.625Z,21536.00